Time;durP1;ratioP1;P1;durP2;ratioP2;P2;SDS_P1;SDS_P2;PMS_P1;PMS_P2;Temp;Humidity;BMP_temperature;BMP_pressure;BME280_temperature;BME280_humidity;BME280_pressure;Samples;Min_cycle;Max_cycle;Signal;HPM_P1;HPM_P2
2022/07/29 00:00:39;;;;;;;4.47;2.22;;;;;;;15.73;49.29;100551.41;2080275;85;30254;-63
2022/07/29 00:03:41;;;;;;;7.87;3.45;;;;;;;15.69;49.34;100560.69;2080093;85;27748;-62
2022/07/29 00:06:42;;;;;;;6.17;2.47;;;;;;;15.64;49.47;100552.02;2080394;85;29845;-63
2022/07/29 00:09:44;;;;;;;10.38;2.58;;;;;;;15.60;49.35;100550.52;2080211;85;32173;-62
2022/07/29 00:12:45;;;;;;;7.97;3.30;;;;;;;15.55;49.48;100557.58;2080557;85;33869;-63
2022/07/29 00:15:47;;;;;;;6.67;2.90;;;;;;;15.51;49.52;100556.05;2079943;85;30849;-63
2022/07/29 00:18:48;;;;;;;7.87;2.77;;;;;;;15.49;49.72;100564.73;2080554;85;27714;-63
2022/07/29 00:21:49;;;;;;;8.38;3.02;;;;;;;15.46;49.72;100559.52;2071739;85;28850;-62
2022/07/29 00:24:51;;;;;;;5.85;2.90;;;;;;;15.44;49.97;100562.80;2095231;84;31064;-64
2022/07/29 00:27:53;;;;;;;8.18;3.27;;;;;;;15.43;49.94;100562.41;2095204;84;34333;-63
2022/07/29 00:30:55;;;;;;;9.43;3.08;;;;;;;15.43;49.95;100560.60;2042943;87;29762;-64
2022/07/29 00:33:57;;;;;;;12.23;2.50;;;;;;;15.41;49.97;100560.30;2095362;85;28210;-63
2022/07/29 00:36:58;;;;;;;6.72;2.92;;;;;;;15.40;50.17;100562.14;2042756;87;30027;-63
2022/07/29 00:40:00;;;;;;;6.50;3.17;;;;;;;15.40;50.26;100555.86;2095196;84;31429;-63
2022/07/29 00:43:01;;;;;;;6.15;2.58;;;;;;;15.38;50.40;100555.98;2034941;86;32990;-64
2022/07/29 00:46:03;;;;;;;5.85;2.98;;;;;;;15.36;50.36;100549.81;2085872;85;30556;-63
2022/07/29 00:49:04;;;;;;;3.98;2.67;;;;;;;15.34;50.53;100546.34;2085726;85;27692;-64
2022/07/29 00:52:10;;;;;;;7.45;2.90;;;;;;;15.30;50.61;100543.48;2030738;87;29982;-63
2022/07/29 00:55:14;;;;;;;9.70;3.25;;;;;;;15.29;50.69;100541.75;2085413;85;31405;-63
2022/07/29 00:58:16;;;;;;;8.95;3.40;;;;;;;15.25;50.77;100542.91;2085511;85;34690;-63
2022/07/29 01:01:17;;;;;;;7.78;3.35;;;;;;;15.24;50.97;100549.27;2070914;86;29979;-63
2022/07/29 01:04:20;;;;;;;8.48;3.20;;;;;;;15.19;51.07;100541.48;2070795;86;27602;-63
2022/07/29 01:07:22;;;;;;;4.75;3.47;;;;;;;15.17;51.23;100550.16;2070680;85;29456;-64
2022/07/29 01:10:24;;;;;;;12.00;2.77;;;;;;;15.13;51.38;100551.31;2070328;86;32323;-65
2022/07/29 01:13:26;;;;;;;6.92;2.77;;;;;;;15.11;51.56;100551.43;2070618;86;33579;-63
2022/07/29 01:16:35;;;;;;;6.50;2.87;;;;;;;15.10;51.56;100555.56;2070662;85;30782;-64
2022/07/29 01:20:03;;;;;;;4.95;2.92;;;;;;;15.08;51.76;100552.09;2069417;86;28019;-64
2022/07/29 01:23:37;;;;;;;7.30;2.85;;;;;;;15.07;51.81;100553.05;2044946;86;29884;-64
2022/07/29 01:26:43;;;;;;;11.55;3.30;;;;;;;15.02;51.91;100543.45;2085314;85;30804;-62
2022/07/29 01:29:49;;;;;;;7.37;3.47;;;;;;;14.99;52.11;100551.73;2030608;86;33902;-62
2022/07/29 01:32:55;;;;;;;9.13;3.42;;;;;;;14.97;52.20;100544.72;2085678;85;30735;-62
2022/07/29 01:35:56;;;;;;;9.28;3.72;;;;;;;14.92;52.31;100539.59;2085659;85;27667;-63
2022/07/29 01:39:06;;;;;;;8.95;2.92;;;;;;;14.87;52.47;100541.23;2085667;85;29209;-62
2022/07/29 01:42:22;;;;;;;8.48;3.50;;;;;;;14.83;52.60;100534.30;2029903;87;31199;-63
2022/07/29 01:45:40;;;;;;;6.30;2.95;;;;;;;14.61;53.04;100511.84;2081893;81;33385;-62
2022/07/29 01:48:49;;;;;;;6.60;3.25;;;;;;;14.61;53.04;100511.84;2094354;84;29683;-61
2022/07/29 01:52:11;;;;;;;8.28;2.98;;;;;;;14.68;53.01;100529.88;2079613;85;27715;-59
2022/07/29 01:55:15;;;;;;;6.12;2.65;;;;;;;14.63;53.31;100536.89;2038860;86;29893;-58
2022/07/29 01:58:18;;;;;;;11.48;2.90;;;;;;;14.58;53.38;100529.56;2061715;86;32310;-58
2022/07/29 02:01:20;;;;;;;7.50;3.02;;;;;;;14.54;53.60;100527.55;2062238;86;33654;-58
2022/07/29 02:04:22;;;;;;;7.67;2.92;;;;;;;14.50;53.71;100521.95;2094895;84;29700;-59
2022/07/29 02:07:25;;;;;;;10.80;3.33;;;;;;;14.48;53.83;100525.22;2094948;85;27716;-58
2022/07/29 02:10:30;;;;;;;7.72;2.85;;;;;;;14.46;53.93;100516.86;2038792;87;28709;-58
2022/07/29 02:13:31;;;;;;;;;;;;;;;14.32;54.16;100496.14;2040498;87;31043;-58
2022/07/29 02:16:33;;;;;;;5.30;3.22;;;;;;;14.41;54.37;100519.35;2071277;85;32940;-58
2022/07/29 02:19:37;;;;;;;7.28;3.70;;;;;;;14.37;54.34;100520.53;2094792;84;30505;-58
2022/07/29 02:22:40;;;;;;;10.25;3.85;;;;;;;14.36;54.51;100521.95;2094835;85;27718;-58
2022/07/29 02:25:42;;;;;;;9.58;2.90;;;;;;;14.36;54.62;100515.22;2004455;87;30099;-58
2022/07/29 02:28:44;;;;;;;5.78;3.08;;;;;;;14.35;54.77;100513.02;2037864;87;31044;-58
2022/07/29 02:31:47;;;;;;;11.95;3.98;;;;;;;14.36;54.81;100511.17;2004495;87;32737;-58
2022/07/29 02:34:49;;;;;;;5.35;2.98;;;;;;;14.36;54.94;100520.14;2037994;87;30302;-58
2022/07/29 02:41:15;;;;;;;8.45;2.98;;;;;;;14.37;55.44;100519.64;2035384;87;30047;-58
2022/07/29 02:44:20;;;;;;;6.62;3.52;;;;;;;14.37;55.43;100516.48;2035488;87;31083;-59
2022/07/29 02:47:38;;;;;;;6.37;3.10;;;;;;;14.39;55.36;100517.72;2064673;85;33363;-58
2022/07/29 02:50:45;;;;;;;8.50;3.70;;;;;;;14.39;55.36;100521.77;2062877;86;30457;-59
2022/07/29 02:53:51;;;;;;;4.85;2.87;;;;;;;14.42;55.44;100518.89;2022343;88;27752;-57
2022/07/29 02:56:55;;;;;;;7.87;3.17;;;;;;;14.41;55.54;100519.35;2063284;86;28664;-58
2022/07/29 03:00:03;;;;;;;8.60;3.75;;;;;;;14.40;55.41;100521.66;2023550;88;31039;-58
2022/07/29 03:03:09;;;;;;;6.80;3.95;;;;;;;14.40;55.76;100520.80;2062891;84;33689;-57
2022/07/29 03:06:14;;;;;;;6.90;3.45;;;;;;;14.39;55.73;100523.12;2023336;88;29689;-57
2022/07/29 03:09:15;;;;;;;;;;;;;;;14.39;55.79;100521.77;2065504;86;27804;-57
2022/07/29 03:12:17;;;;;;;9.30;4.03;;;;;;;14.39;55.92;100527.16;2022935;88;29173;-57
2022/07/29 03:15:19;;;;;;;12.35;3.45;;;;;;;14.36;56.01;100525.53;2052674;86;31059;-57
2022/07/29 03:18:21;;;;;;;6.42;3.80;;;;;;;14.37;56.02;100524.57;2034431;87;32755;-57
2022/07/29 03:21:23;;;;;;;7.20;3.55;;;;;;;14.38;56.13;100529.47;2034476;87;29981;-57
2022/07/29 03:24:30;;;;;;;14.90;3.77;;;;;;;14.38;56.22;100530.34;2034279;87;28444;-57
2022/07/29 03:27:31;;;;;;;9.23;3.60;;;;;;;14.39;56.22;100529.39;2083194;84;29516;-57
2022/07/29 03:30:32;;;;;;;5.97;3.15;;;;;;;14.39;56.27;100528.51;2114695;84;30968;-58
2022/07/29 03:33:33;;;;;;;7.97;3.00;;;;;;;14.41;56.37;100529.28;2114615;84;32573;-58
2022/07/29 03:36:35;;;;;;;9.20;3.72;;;;;;;14.41;56.36;100536.88;2114354;84;30859;-58
2022/07/29 03:39:40;;;;;;;6.42;3.42;;;;;;;14.44;56.42;100530.45;2114563;84;27670;-59
2022/07/29 03:42:41;;;;;;;;;;;;;;;14.46;56.49;100529.88;2117223;84;28557;-58
2022/07/29 03:45:47;;;;;;;10.03;3.22;;;;;;;14.45;56.63;100530.83;2116714;83;27737;-58
2022/07/29 03:48:52;;;;;;;12.68;3.80;;;;;;;14.44;56.65;100535.34;2096599;84;33640;-58
2022/07/29 03:51:54;;;;;;;8.80;3.27;;;;;;;14.45;56.70;100534.88;2060598;86;30406;-58
2022/07/29 03:54:56;;;;;;;7.03;4.12;;;;;;;14.47;56.81;100539.70;2075441;85;27706;-58
2022/07/29 03:57:59;;;;;;;9.83;4.40;;;;;;;14.48;56.82;100536.00;2075524;85;29868;-58
2022/07/29 04:01:01;;;;;;;9.98;4.25;;;;;;;14.50;56.86;100540.83;2075174;85;32129;-58
2022/07/29 04:04:04;;;;;;;12.45;4.72;;;;;;;14.52;56.89;100543.44;2075478;85;32989;-60
2022/07/29 04:07:05;;;;;;;9.18;4.20;;;;;;;14.54;57.02;100548.27;2075600;84;29650;-59
2022/07/29 04:10:08;;;;;;;16.77;4.50;;;;;;;14.56;57.00;100549.04;2075708;85;27796;-58
2022/07/29 04:13:09;;;;;;;16.55;4.50;;;;;;;14.56;57.11;100544.50;2075438;85;28650;-58
2022/07/29 04:16:11;;;;;;;11.97;5.12;;;;;;;14.60;57.14;100542.47;2050456;85;31712;-58
2022/07/29 04:19:12;;;;;;;9.60;3.75;;;;;;;14.65;57.13;100546.22;2041896;87;33451;-57
2022/07/29 04:22:13;;;;;;;9.53;4.35;;;;;;;14.72;57.14;100545.80;2041589;87;29791;-58
2022/07/29 04:25:14;;;;;;;6.92;4.10;;;;;;;14.80;57.25;100543.96;2041671;87;28073;-57
2022/07/29 04:28:15;;;;;;;9.63;4.20;;;;;;;14.89;57.22;100542.01;2041699;87;29037;-58
2022/07/29 04:31:17;;;;;;;12.13;3.90;;;;;;;14.99;57.20;100538.24;2041559;87;31198;-58
2022/07/29 04:34:18;;;;;;;11.48;4.08;;;;;;;15.10;57.17;100544.30;2041579;87;34134;-59
2022/07/29 04:37:19;;;;;;;11.53;4.03;;;;;;;15.21;57.10;100538.67;2041588;87;30558;-58
2022/07/29 04:40:22;;;;;;;13.53;4.62;;;;;;;15.33;57.13;100535.16;2041404;87;27739;-58
2022/07/29 04:43:24;;;;;;;14.00;4.22;;;;;;;15.46;57.04;100530.70;2041470;87;29055;-58
2022/07/29 04:46:25;;;;;;;10.13;3.83;;;;;;;15.85;56.80;100529.50;2047018;85;32267;-58
2022/07/29 04:49:26;;;;;;;11.48;3.95;;;;;;;15.85;56.80;100529.50;2040374;87;32946;-58
2022/07/29 04:52:27;;;;;;;12.18;3.65;;;;;;;17.29;56.54;100515.25;2040253;87;30043;-57
2022/07/29 04:55:29;;;;;;;6.37;3.20;;;;;;;17.29;56.54;100515.25;2054578;86;27619;-58
2022/07/29 04:58:30;;;;;;;11.00;3.30;;;;;;;18.81;55.30;100529.36;2076090;85;29152;-59
2022/07/29 05:01:32;;;;;;;11.55;3.50;;;;;;;20.06;53.33;100526.81;2040229;87;31390;-59
2022/07/29 05:04:33;;;;;;;6.90;3.10;;;;;;;21.15;51.67;100525.52;2040909;87;33604;-58
2022/07/29 05:07:34;;;;;;;7.42;3.42;;;;;;;22.08;50.60;100522.42;2040610;87;30046;-59
2022/07/29 05:10:37;;;;;;;4.37;2.58;;;;;;;22.88;48.51;100520.70;2031819;86;28293;-58
2022/07/29 05:13:39;;;;;;;8.15;2.90;;;;;;;23.31;46.77;100512.86;2076185;85;29879;-58
2022/07/29 05:16:41;;;;;;;7.50;3.85;;;;;;;23.25;46.63;100507.48;2040572;87;31448;-58
2022/07/29 05:19:43;;;;;;;7.95;2.83;;;;;;;23.38;45.53;100508.48;2076218;85;32731;-58
2022/07/29 05:22:44;;;;;;;5.37;2.40;;;;;;;23.48;45.15;100505.19;2075975;85;30011;-58
2022/07/29 05:25:46;;;;;;;8.20;2.72;;;;;;;23.55;44.59;100510.01;2054799;86;27697;-58
2022/07/29 05:28:47;;;;;;;8.35;2.40;;;;;;;23.37;44.47;100509.48;2076381;85;29187;-58
2022/07/29 05:31:48;;;;;;;6.67;2.90;;;;;;;23.27;44.11;100512.29;2054946;86;30940;-58
2022/07/29 05:34:49;;;;;;;4.85;2.40;;;;;;;23.00;43.75;100518.11;2076203;85;33298;-58
2022/07/29 05:37:51;;;;;;;7.20;2.70;;;;;;;22.82;43.78;100515.34;2054670;86;29436;-59
2022/07/29 05:40:52;;;;;;;4.60;2.42;;;;;;;22.57;43.72;100510.05;2076189;85;27773;-58
2022/07/29 05:43:53;;;;;;;4.08;2.22;;;;;;;22.21;43.60;100516.14;2040413;87;29034;-59
2022/07/29 05:46:55;;;;;;;6.12;2.67;;;;;;;21.88;43.36;100522.95;2073643;84;32258;-59
2022/07/29 05:49:56;;;;;;;7.45;2.60;;;;;;;21.58;43.56;100524.79;2066111;86;34234;-58
2022/07/29 05:52:58;;;;;;;4.65;2.33;;;;;;;21.36;44.01;100526.25;2066106;86;29685;-58
2022/07/29 05:56:05;;;;;;;5.97;2.45;;;;;;;21.32;44.48;100522.59;2066061;86;27717;-58
2022/07/29 05:59:07;;;;;;;6.80;2.67;;;;;;;21.39;44.38;100515.07;2065835;85;29922;-58
2022/07/29 06:02:08;;;;;;;7.03;3.25;;;;;;;21.52;44.61;100514.80;2066117;86;31398;-58
2022/07/29 06:05:09;;;;;;;7.58;2.92;;;;;;;21.79;44.48;100511.88;2066179;85;33182;-58
2022/07/29 06:08:10;;;;;;;6.72;2.85;;;;;;;22.20;44.32;100520.39;2066225;86;29979;-58
2022/07/29 06:11:12;;;;;;;6.60;2.37;;;;;;;22.45;43.68;100510.73;2045425;87;27689;-58
2022/07/29 06:14:13;;;;;;;5.08;2.22;;;;;;;22.55;43.66;100519.74;2066165;86;29890;-58
2022/07/29 06:17:16;;;;;;;3.80;2.17;;;;;;;22.68;43.21;100513.08;2045169;87;31045;-63
2022/07/29 06:20:18;;;;;;;4.45;2.25;;;;;;;22.87;43.35;100506.16;2066207;86;33501;-59
2022/07/29 06:23:20;;;;;;;6.33;2.62;;;;;;;23.17;42.73;100510.95;2030779;87;29993;-58
2022/07/29 06:26:22;;;;;;;8.55;3.20;;;;;;;23.72;42.11;100503.68;2045255;87;27794;-62
2022/07/29 06:29:24;;;;;;;3.08;1.90;;;;;;;24.18;41.76;100506.30;2065958;86;29362;-59
2022/07/29 06:32:26;;;;;;;4.40;2.37;;;;;;;24.49;40.84;100509.08;2045247;87;31217;-59
2022/07/29 06:35:28;;;;;;;3.90;1.98;;;;;;;24.86;40.64;100509.27;2066054;86;33342;-61
2022/07/29 06:38:30;;;;;;;8.25;2.58;;;;;;;25.36;40.72;100510.30;2030520;87;29617;-59
2022/07/29 06:41:31;;;;;;;3.55;1.98;;;;;;;26.03;39.40;100509.35;2066156;86;27632;-60
2022/07/29 06:44:33;;;;;;;2.62;1.90;;;;;;;26.51;38.56;100501.21;2066435;85;28635;-60
2022/07/29 06:47:37;;;;;;;6.78;2.45;;;;;;;26.68;37.65;100508.03;2076395;84;33245;-60
2022/07/29 06:50:39;;;;;;;6.70;2.15;;;;;;;26.64;36.99;100508.07;2075174;85;33029;-59
2022/07/29 06:53:44;;;;;;;5.33;2.20;;;;;;;26.60;37.00;100517.69;2075203;85;29988;-62
2022/07/29 06:56:47;;;;;;;7.05;2.20;;;;;;;26.66;37.12;100516.97;2050001;85;28381;-59
2022/07/29 06:59:49;;;;;;;6.40;2.55;;;;;;;26.52;36.72;100516.66;2075122;85;29426;-58
2022/07/29 07:02:52;;;;;;;4.78;2.15;;;;;;;26.50;36.58;100510.48;2075036;85;32100;-59
2022/07/29 07:05:54;;;;;;;6.28;2.08;;;;;;;26.63;36.52;100510.47;2075015;85;33050;-60
2022/07/29 07:08:56;;;;;;;4.25;2.40;;;;;;;26.71;35.71;100513.71;2056077;85;29990;-60
2022/07/29 07:11:57;;;;;;;5.33;2.30;;;;;;;26.64;34.41;100521.81;2051770;86;28102;-60
2022/07/29 07:14:59;;;;;;;2.95;1.90;;;;;;;26.35;34.92;100514.48;2051865;86;29870;-60
2022/07/29 07:18:00;;;;;;;5.78;2.10;;;;;;;26.16;35.18;100516.23;2051516;86;30312;-58
2022/07/29 07:21:04;;;;;;;7.00;1.87;;;;;;;25.96;35.51;100501.98;2051513;85;33018;-59
2022/07/29 07:24:07;;;;;;;6.10;2.52;;;;;;;25.81;35.33;100510.91;2102524;84;30828;-59
2022/07/29 07:27:09;;;;;;;5.97;2.30;;;;;;;25.68;35.31;100504.55;2102563;84;27639;-58
2022/07/29 07:30:18;;;;;;;2.52;1.80;;;;;;;25.60;35.77;100505.89;2102498;84;29956;-58
2022/07/29 07:33:21;;;;;;;6.85;2.47;;;;;;;25.68;35.56;100507.79;2101556;84;27994;-60
2022/07/29 07:36:23;;;;;;;9.40;2.65;;;;;;;25.74;35.50;100503.84;2102990;84;33810;-59
2022/07/29 07:39:25;;;;;;;2.67;1.82;;;;;;;25.84;35.53;100503.67;2102667;84;30886;-58
2022/07/29 07:42:27;;;;;;;5.90;1.87;;;;;;;26.02;35.80;100499.90;2096652;84;27668;-59
2022/07/29 07:45:39;;;;;;;7.43;2.47;;;;;;;26.20;35.46;100499.23;2287438;76;35194;-60
2022/07/29 07:48:41;;;;;;;4.67;2.10;;;;;;;26.31;35.23;100510.37;2280622;78;27674;-60
2022/07/29 07:51:43;;;;;;;3.70;1.80;;;;;;;26.31;35.03;100496.64;2280260;78;28665;-58
2022/07/29 07:54:44;;;;;;;4.83;2.00;;;;;;;26.17;34.87;100495.45;2280360;78;32226;-63
2022/07/29 07:57:47;;;;;;;7.22;2.47;;;;;;;26.09;35.29;100493.54;2280065;78;33831;-58
2022/07/29 08:00:50;;;;;;;4.33;2.33;;;;;;;26.09;35.36;100489.42;2280406;78;28605;-59
2022/07/29 08:03:51;;;;;;;8.33;1.80;;;;;;;26.04;35.58;100484.11;2280269;78;27695;-59
2022/07/29 08:06:54;;;;;;;5.55;2.08;;;;;;;26.05;35.53;100490.83;2280448;78;28631;-59
2022/07/29 08:09:55;;;;;;;2.92;1.92;;;;;;;25.99;35.11;100490.63;2238625;79;31033;-59
2022/07/29 08:12:57;;;;;;;5.12;2.30;;;;;;;25.96;35.39;100489.09;2269993;78;32954;-60
2022/07/29 08:16:01;;;;;;;7.62;2.00;;;;;;;25.98;35.17;100490.31;2238637;79;28590;-59
2022/07/29 08:19:02;;;;;;;;;;;;;;;26.04;35.31;100489.60;2272761;78;27224;-60
2022/07/29 08:22:03;;;;;;;3.00;1.55;;;;;;;26.27;35.47;100483.44;2270307;78;28702;-58
2022/07/29 08:25:06;;;;;;;7.72;2.02;;;;;;;26.51;35.36;100485.27;2238686;79;30950;-60
2022/07/29 08:28:08;;;;;;;4.92;2.00;;;;;;;26.80;35.28;100477.80;2269892;78;32930;-59
2022/07/29 08:31:10;;;;;;;3.90;1.92;;;;;;;27.04;35.02;100480.08;2238733;79;28460;-60
2022/07/29 08:34:12;;;;;;;4.28;2.02;;;;;;;27.25;34.17;100484.93;2269863;78;27596;-59
2022/07/29 08:37:13;;;;;;;5.45;2.15;;;;;;;27.44;34.26;100486.88;2257615;78;29036;-59
2022/07/29 08:40:15;;;;;;;8.23;1.72;;;;;;;27.69;33.85;100486.20;2269676;78;32218;-62
2022/07/29 08:43:17;;;;;;;6.95;2.00;;;;;;;27.90;33.78;100477.78;2269521;78;33293;-60
2022/07/29 08:46:20;;;;;;;4.25;2.33;;;;;;;28.16;33.91;100482.90;2242851;79;29146;-59
2022/07/29 08:49:21;;;;;;;6.05;2.10;;;;;;;28.33;33.23;100484.10;2257472;78;27636;-60
2022/07/29 08:52:26;;;;;;;6.67;2.75;;;;;;;28.46;32.91;100477.94;2242796;79;28710;-60
2022/07/29 08:55:27;;;;;;;2.67;1.95;;;;;;;28.58;32.75;100486.56;2256889;78;31384;-60
2022/07/29 08:58:32;;;;;;;7.87;2.37;;;;;;;28.52;32.87;100482.67;2242370;79;33335;-63
2022/07/29 09:01:34;;;;;;;5.37;1.75;;;;;;;28.54;32.65;100479.20;2256712;78;30101;-60
2022/07/29 09:04:36;;;;;;;6.03;2.62;;;;;;;28.54;32.38;100483.88;2242171;78;27753;-60
2022/07/29 09:07:39;;;;;;;3.80;1.92;;;;;;;28.56;32.34;100484.02;2241530;78;28649;-62
2022/07/29 09:10:41;;;;;;;7.72;1.98;;;;;;;28.57;31.73;100474.70;2222564;80;31161;-58
2022/07/29 09:13:43;;;;;;;3.15;1.95;;;;;;;28.35;32.17;100475.97;2222892;80;33692;-60
2022/07/29 09:16:54;;;;;;;4.55;2.25;;;;;;;28.19;32.20;100471.51;2222249;80;30133;-61
2022/07/29 09:20:01;;;;;;;3.83;2.00;;;;;;;28.02;31.76;100474.06;2225957;80;28241;-62
2022/07/29 09:23:08;;;;;;;4.03;1.85;;;;;;;27.88;32.23;100473.81;2199194;80;29892;-61
2022/07/29 09:26:09;;;;;;;3.33;2.12;;;;;;;27.80;32.40;100466.18;2226095;80;31045;-61
2022/07/29 09:29:16;;;;;;;4.25;1.45;;;;;;;27.75;32.60;100460.70;2202143;80;33127;-59
2022/07/29 09:32:18;;;;;;;5.20;1.87;;;;;;;27.83;32.75;100461.15;2226089;80;28719;-60
2022/07/29 09:35:25;;;;;;;3.00;2.40;;;;;;;27.87;32.57;100463.87;2174063;80;27987;-64
2022/07/29 09:38:26;;;;;;;5.70;1.80;;;;;;;27.87;32.57;100465.75;2239132;79;28655;-60
2022/07/29 09:41:27;;;;;;;7.85;2.87;;;;;;;27.72;32.44;100459.69;2229983;79;31578;-62
2022/07/29 09:44:50;;;;;;;4.17;1.70;;;;;;;27.72;32.73;100456.94;2230234;79;33082;-59
2022/07/29 09:47:51;;;;;;;2.90;2.02;;;;;;;27.64;32.59;100459.75;2211940;80;29235;-61
2022/07/29 09:50:53;;;;;;;3.52;1.82;;;;;;;27.44;32.65;100453.36;2212382;80;27520;-61
2022/07/29 09:53:55;;;;;;;8.25;2.72;;;;;;;27.42;32.84;100452.67;2212114;80;28502;-60
2022/07/29 09:56:56;;;;;;;2.58;1.92;;;;;;;27.43;32.83;100450.77;2211821;80;31099;-62
2022/07/29 10:00:09;;;;;;;6.80;1.67;;;;;;;27.40;32.81;100444.25;2212120;80;34171;-59
2022/07/29 10:03:12;;;;;;;4.67;1.90;;;;;;;27.39;32.74;100448.91;2212159;80;28984;-61
2022/07/29 10:06:13;;;;;;;3.12;1.67;;;;;;;27.30;32.55;100448.65;2210845;80;27616;-59
2022/07/29 10:09:34;;;;;;;6.58;2.30;;;;;;;27.26;32.99;100438.51;2228061;79;29043;-60
2022/07/29 10:12:53;;;;;;;3.98;2.00;;;;;;;27.30;32.85;100443.98;2227981;79;30854;-61
2022/07/29 10:15:55;;;;;;;6.40;2.65;;;;;;;27.34;33.02;100443.09;2227351;79;34052;-60
2022/07/29 10:18:57;;;;;;;6.25;1.90;;;;;;;27.35;33.19;100437.93;2227915;79;29990;-59
2022/07/29 10:22:01;;;;;;;5.00;2.12;;;;;;;27.36;33.10;100432.77;2228163;79;27698;-60
2022/07/29 10:25:03;;;;;;;4.30;2.08;;;;;;;27.42;33.29;100437.55;2228243;79;28799;-59
2022/07/29 10:28:06;;;;;;;7.15;2.58;;;;;;;27.59;33.36;100430.56;2227639;79;32231;-60
2022/07/29 10:31:09;;;;;;;6.33;2.02;;;;;;;27.67;32.79;100425.51;2227864;79;33318;-58
2022/07/29 10:34:46;;;;;;;4.53;2.37;;;;;;;27.70;32.72;100430.11;2201358;79;29598;-60
2022/07/29 10:38:28;;;;;;;5.78;2.20;;;;;;;27.81;33.01;100426.56;2184406;81;27527;-60
2022/07/29 10:41:57;;;;;;;8.15;2.80;;;;;;;27.99;32.92;100432.58;2199705;80;28150;-61
2022/07/29 10:45:08;;;;;;;5.67;2.75;;;;;;;28.07;32.85;100421.16;2233679;79;32188;-59
2022/07/29 10:48:11;;;;;;;8.40;3.12;;;;;;;28.09;32.14;100430.94;2273237;78;33687;-62
2022/07/29 10:51:16;;;;;;;7.12;2.40;;;;;;;28.00;32.71;100423.28;2273582;78;28733;-60
2022/07/29 10:54:42;;;;;;;7.15;2.05;;;;;;;28.05;32.76;100421.33;2273369;78;27631;-60
2022/07/29 10:58:10;;;;;;;4.17;2.45;;;;;;;28.21;32.69;100418.97;2273539;78;29064;-60
2022/07/29 11:01:31;;;;;;;5.85;2.12;;;;;;;28.28;32.48;100415.80;2195156;81;32154;-61
2022/07/29 11:04:51;;;;;;;4.75;2.22;;;;;;;28.24;31.86;100415.84;2194250;80;34312;-58
2022/07/29 11:08:17;;;;;;;4.17;1.98;;;;;;;28.24;32.38;100419.97;2160874;82;28890;-59
2022/07/29 11:11:25;;;;;;;5.12;1.92;;;;;;;28.32;31.95;100406.63;2160910;82;28408;-61
2022/07/29 11:14:56;;;;;;;6.28;2.20;;;;;;;28.39;32.20;100421.33;2123977;83;29167;-59
2022/07/29 11:18:03;;;;;;;8.78;2.90;;;;;;;28.44;31.90;100412.52;2122524;83;32148;-59
2022/07/29 11:21:04;;;;;;;4.90;1.95;;;;;;;28.40;31.59;100417.53;2124033;83;33672;-58
2022/07/29 11:24:19;;;;;;;3.42;1.85;;;;;;;28.25;31.49;100412.04;2122536;83;28533;-59
2022/07/29 11:27:21;;;;;;;8.60;2.45;;;;;;;28.17;31.68;100407.48;2124510;83;27729;-59
2022/07/29 11:30:45;;;;;;;10.03;2.70;;;;;;;28.23;32.11;100403.11;2121968;83;28668;-59
2022/07/29 11:33:47;;;;;;;2.47;2.20;;;;;;;28.14;32.27;100406.98;2146272;82;30979;-59
2022/07/29 11:37:13;;;;;;;5.78;2.20;;;;;;;28.13;32.53;100407.52;2161756;82;33347;-59
2022/07/29 11:40:17;;;;;;;9.03;2.40;;;;;;;28.22;32.39;100406.91;2162866;82;29578;-59
2022/07/29 11:43:24;;;;;;;5.30;2.25;;;;;;;28.27;32.21;100411.84;2163135;82;27748;-58
2022/07/29 11:46:49;;;;;;;7.17;2.15;;;;;;;28.33;32.35;100403.66;2133614;82;29207;-59
2022/07/29 11:49:51;;;;;;;8.40;2.47;;;;;;;28.33;32.40;100415.22;2152752;82;31569;-59
2022/07/29 11:52:53;;;;;;;5.67;2.58;;;;;;;28.24;32.64;100417.22;2152826;82;33358;-59
2022/07/29 11:55:56;;;;;;;5.42;2.35;;;;;;;28.31;32.58;100412.64;2152828;82;29176;-59
2022/07/29 11:59:06;;;;;;;9.20;3.17;;;;;;;28.32;32.42;100410.75;2152603;82;27672;-60
2022/07/29 12:02:09;;;;;;;5.00;2.17;;;;;;;28.42;32.70;100409.92;2152777;82;28641;-58
2022/07/29 12:05:11;;;;;;;8.38;2.40;;;;;;;28.49;32.56;100409.51;2228488;79;31035;-59
2022/07/29 12:08:22;;;;;;;4.28;2.50;;;;;;;28.49;32.45;100405.88;2259088;78;32864;-59
2022/07/29 12:11:23;;;;;;;4.95;2.25;;;;;;;28.45;32.54;100408.17;2261754;78;29880;-57
2022/07/29 12:14:32;;;;;;;9.80;2.35;;;;;;;28.55;32.51;100402.87;2263287;78;27545;-59
2022/07/29 12:17:34;;;;;;;6.62;2.10;;;;;;;28.49;32.25;100406.75;2262664;78;28639;-59
2022/07/29 12:20:36;;;;;;;7.78;2.40;;;;;;;28.50;32.58;100392.43;2262612;78;31008;-59
2022/07/29 12:23:37;;;;;;;2.85;1.80;;;;;;;28.59;32.70;100396.81;2263005;78;33635;-59
2022/07/29 12:26:49;;;;;;;4.35;2.47;;;;;;;28.70;32.65;100397.34;2262483;78;29106;-62
2022/07/29 12:30:03;;;;;;;4.55;2.37;;;;;;;28.76;32.70;100396.08;2256421;78;28305;-59
2022/07/29 12:33:15;;;;;;;3.72;2.55;;;;;;;28.86;32.38;100391.63;2263224;78;28668;-59
2022/07/29 12:36:16;;;;;;;5.65;2.60;;;;;;;28.76;32.25;100395.23;2252075;78;31198;-59
2022/07/29 12:39:18;;;;;;;3.83;2.00;;;;;;;28.70;32.49;100378.05;2234787;79;34259;-59
2022/07/29 12:42:19;;;;;;;8.63;2.35;;;;;;;28.74;32.58;100383.55;2235438;79;29892;-59
2022/07/29 12:45:30;;;;;;;5.25;2.87;;;;;;;28.76;32.55;100375.40;2225910;79;27904;-60
2022/07/29 12:48:38;;;;;;;5.67;2.98;;;;;;;28.73;32.43;100366.64;2214004;80;28708;-60
2022/07/29 12:51:40;;;;;;;5.72;2.33;;;;;;;28.61;32.48;100365.77;2214309;80;31059;-58
2022/07/29 12:54:47;;;;;;;4.25;2.22;;;;;;;28.54;32.49;100373.09;2214405;80;33784;-58
2022/07/29 12:57:52;;;;;;;5.58;2.08;;;;;;;28.43;32.61;100358.44;2214130;80;29054;-59
2022/07/29 13:01:17;;;;;;;8.43;2.67;;;;;;;28.31;32.69;100363.58;2214554;80;27608;-59
2022/07/29 13:04:32;;;;;;;5.70;2.30;;;;;;;28.25;32.95;100358.31;2214369;80;29448;-59
2022/07/29 13:07:35;;;;;;;;;;;;;;;28.35;32.97;100357.48;2219433;80;31407;-62
2022/07/29 13:10:36;;;;;;;3.12;2.60;;;;;;;28.37;33.08;100352.31;2217817;80;33395;-59
2022/07/29 13:13:51;;;;;;;3.08;2.50;;;;;;;28.39;33.29;100352.97;2191225;81;29371;-61
2022/07/29 13:17:07;;;;;;;4.50;3.12;;;;;;;28.39;33.26;100352.97;2191350;80;27712;-59
2022/07/29 13:20:14;;;;;;;3.40;2.58;;;;;;;28.39;33.49;100347.46;2217930;80;28591;-58
2022/07/29 13:23:15;;;;;;;4.12;1.65;;;;;;;28.36;33.33;100341.83;2213036;79;31057;-59
2022/07/29 13:26:19;;;;;;;6.78;3.10;;;;;;;28.37;33.54;100333.89;2227186;79;33363;-62
2022/07/29 13:29:20;;;;;;;4.87;2.60;;;;;;;28.47;33.48;100334.43;2186159;81;30223;-58
2022/07/29 13:32:22;;;;;;;4.92;2.87;;;;;;;28.51;33.17;100334.89;2178233;81;27688;-60
2022/07/29 13:35:23;;;;;;;4.10;2.62;;;;;;;28.47;33.36;100336.31;2199759;80;29256;-60
2022/07/29 13:38:25;;;;;;;6.12;2.75;;;;;;;28.51;33.42;100326.62;2199716;80;31698;-58
2022/07/29 13:41:26;;;;;;;5.08;2.50;;;;;;;28.39;33.22;100327.64;2199899;80;33386;-58
2022/07/29 13:44:27;;;;;;;3.92;2.52;;;;;;;28.27;33.43;100319.03;2200062;80;28942;-58
2022/07/29 13:47:29;;;;;;;9.10;2.92;;;;;;;28.31;33.78;100325.84;2263766;78;28224;-60
2022/07/29 13:50:31;;;;;;;5.75;2.65;;;;;;;28.34;33.63;100320.50;2269387;78;29964;-63
2022/07/29 13:53:32;;;;;;;4.75;2.65;;;;;;;28.29;33.55;100314.70;2269005;78;31763;-59
2022/07/29 13:56:34;;;;;;;8.73;4.42;;;;;;;28.27;33.68;100316.78;2268938;78;33655;-58
2022/07/29 13:59:35;;;;;;;5.53;3.87;;;;;;;28.18;33.73;100322.92;2269422;78;29781;-59
2022/07/29 14:02:40;;;;;;;3.87;2.08;;;;;;;28.12;33.79;100319.04;2237894;79;27575;-59
2022/07/29 14:05:41;;;;;;;7.33;2.75;;;;;;;28.16;34.01;100323.64;2269080;78;29137;-61
2022/07/29 14:08:43;;;;;;;4.80;3.17;;;;;;;28.32;34.03;100323.42;2269172;78;31474;-59
2022/07/29 14:11:45;;;;;;;3.55;2.25;;;;;;;28.44;33.99;100325.16;2269185;78;34187;-59
2022/07/29 14:14:47;;;;;;;6.10;2.70;;;;;;;28.57;33.84;100329.12;2268684;78;30122;-60
2022/07/29 14:17:48;;;;;;;4.08;2.60;;;;;;;28.62;33.87;100319.75;2269203;78;27668;-59
2022/07/29 14:20:50;;;;;;;3.33;2.22;;;;;;;28.62;33.63;100314.23;2269112;78;29852;-62
2022/07/29 14:23:52;;;;;;;3.55;2.45;;;;;;;28.63;33.83;100320.08;2268750;78;30429;-59